createdAt,value
2019-02-14T06:12:24.157Z,0.40
2019-02-14T06:14:56.121Z,0.50
2019-02-14T06:18:15.715Z,0.60
2019-02-14T06:20:47.716Z,0.50
2019-02-14T06:23:19.688Z,0.50
2019-02-14T06:25:51.538Z,0.50
2019-02-14T06:28:23.737Z,0.70
2019-02-14T06:30:55.589Z,0.60
2019-02-14T06:33:27.486Z,0.70
2019-02-14T06:35:59.349Z,0.60
2019-02-14T06:38:31.223Z,0.60
2019-02-14T06:41:03.683Z,0.80
2019-02-14T06:43:36.755Z,0.80
2019-02-14T06:46:08.725Z,0.60
2019-02-14T06:48:40.626Z,0.80
2019-02-14T06:51:12.481Z,0.70
2019-02-14T06:53:44.364Z,0.90
2019-02-14T06:56:16.247Z,1.00
2019-02-14T06:58:48.532Z,1.20
2019-02-14T07:01:20.381Z,1.40
2019-02-14T07:03:52.490Z,1.30
2019-02-14T07:06:24.384Z,1.40
2019-02-14T07:08:56.377Z,1.40
2019-02-14T07:11:29.337Z,1.50
2019-02-14T07:14:04.270Z,1.60
2019-02-14T07:16:36.176Z,1.50
2019-02-14T07:25:29.741Z,1.80
2019-02-14T07:28:01.594Z,1.90
2019-02-14T07:30:33.767Z,2.10
2019-02-14T07:33:05.634Z,2.20
2019-02-14T07:35:37.527Z,2.30
2019-02-14T07:38:09.389Z,2.40
2019-02-14T07:40:41.274Z,2.30
2019-02-14T07:43:13.125Z,2.50
2019-02-14T07:45:45.437Z,2.50
2019-02-14T07:48:17.292Z,2.20
2019-02-14T07:50:49.196Z,2.30
2019-02-14T07:53:21.045Z,2.20
2019-02-14T07:55:52.942Z,2.50
2019-02-14T07:58:24.787Z,2.40
2019-02-14T08:00:56.972Z,2.40
2019-02-14T08:03:28.825Z,2.60
2019-02-14T08:06:00.695Z,2.60
2019-02-14T08:08:32.546Z,2.60
2019-02-14T08:11:07.422Z,2.80
2019-02-14T08:13:39.878Z,2.90
2019-02-14T08:16:11.932Z,2.90
2019-02-14T08:18:43.785Z,3.40
2019-02-14T08:21:15.659Z,3.50
2019-02-14T08:23:47.513Z,3.80
2019-02-14T08:26:19.383Z,4.50
2019-02-14T08:28:51.212Z,4.90
2019-02-14T08:31:23.417Z,5.40
2019-02-14T08:33:55.251Z,5.20
2019-02-14T08:36:27.139Z,5.60
2019-02-14T08:38:58.975Z,6.20
2019-02-14T08:41:30.857Z,6.20
2019-02-14T08:44:02.703Z,6.70
2019-02-14T08:46:34.884Z,7.70
2019-02-14T08:49:06.742Z,8.40
2019-02-14T08:51:38.641Z,8.30
2019-02-14T08:54:10.492Z,7.70
2019-02-14T08:56:42.379Z,7.20
2019-02-14T08:59:14.249Z,7.60
2019-02-14T09:01:46.224Z,7.60
2019-02-14T09:04:18.067Z,8.40
2019-02-14T09:06:49.988Z,8.70
2019-02-14T09:09:21.858Z,9.50
2019-02-14T09:11:53.767Z,10.10
2019-02-14T09:14:26.041Z,11.20
2019-02-14T09:16:58.229Z,12.30
2019-02-14T09:19:30.093Z,13.00
2019-02-14T09:22:02.008Z,13.30
2019-02-14T09:24:33.874Z,13.60
2019-02-14T09:27:05.757Z,14.10
2019-02-14T09:29:37.630Z,15.20
2019-02-14T09:32:09.542Z,15.80
2019-02-14T09:34:41.410Z,16.80
2019-02-14T09:37:13.298Z,16.50
2019-02-14T09:39:45.154Z,15.10
2019-02-14T09:42:17.029Z,14.30
2019-02-14T09:44:48.912Z,13.70
2019-02-14T09:47:20.822Z,14.30
2019-02-14T09:49:52.679Z,15.20
2019-02-14T09:52:24.623Z,15.80
2019-02-14T09:54:56.443Z,15.60
2019-02-14T09:57:28.326Z,15.00
2019-02-14T10:00:00.352Z,14.60
2019-02-14T10:02:32.452Z,13.70
2019-02-14T10:05:04.304Z,13.70
2019-02-14T10:07:36.187Z,14.40
2019-02-14T10:10:11.750Z,16.10
2019-02-14T10:12:43.641Z,15.20
2019-02-14T10:15:16.105Z,15.10
2019-02-14T10:17:48.391Z,15.50
2019-02-14T10:20:20.273Z,16.90
2019-02-14T10:22:52.166Z,17.00
2019-02-14T10:25:24.021Z,16.60
2019-02-14T10:27:55.907Z,16.70
2019-02-14T10:30:27.790Z,16.40
2019-02-14T10:33:00.071Z,16.60
2019-02-14T10:35:31.946Z,16.80
2019-02-14T10:38:03.820Z,16.80
2019-02-14T10:40:35.701Z,16.40
2019-02-14T10:43:07.588Z,16.10
2019-02-14T10:45:39.453Z,15.90
2019-02-14T10:48:11.525Z,15.10
2019-02-14T10:50:43.447Z,14.40
2019-02-14T10:53:15.360Z,14.30
2019-02-14T10:55:47.231Z,13.20
2019-02-14T10:58:19.470Z,12.50
2019-02-14T11:00:51.387Z,12.20
2019-02-14T11:03:23.623Z,12.40
2019-02-14T11:05:55.536Z,12.30
2019-02-14T11:08:31.607Z,12.40
2019-02-14T11:11:00.983Z,13.10
2019-02-14T11:13:32.872Z,13.60
2019-02-14T11:16:06.205Z,13.80
2019-02-14T11:18:44.076Z,14.60
2019-02-14T11:21:11.715Z,14.80
2019-02-14T11:23:43.595Z,15.70
2019-02-14T11:26:15.449Z,16.80
2019-02-14T11:28:47.342Z,16.80
2019-02-14T11:31:19.387Z,17.00
2019-02-14T11:33:51.569Z,17.10
2019-02-14T11:36:23.506Z,16.20
2019-02-14T11:38:55.419Z,15.90
2019-02-14T11:41:27.260Z,16.00
2019-02-14T11:43:59.185Z,16.40
2019-02-14T11:46:31.030Z,16.40
2019-02-14T11:49:03.124Z,15.60
2019-02-14T11:51:34.975Z,16.10
2019-02-14T11:54:06.866Z,16.10
2019-02-14T11:56:38.733Z,15.70
2019-02-14T11:59:10.626Z,15.70
2019-02-14T12:01:42.496Z,15.50
2019-02-14T12:04:14.421Z,15.50
2019-02-14T12:06:46.319Z,16.30
2019-02-14T12:09:18.271Z,16.70
2019-02-14T12:11:50.139Z,17.10
2019-02-14T12:14:23.343Z,17.70
2019-02-14T12:16:55.565Z,18.30
2019-02-14T12:19:27.482Z,19.40
2019-02-14T12:21:59.335Z,19.80
2019-02-14T12:24:31.221Z,20.70
2019-02-14T12:27:03.126Z,20.40
2019-02-14T12:29:35.027Z,20.10
2019-02-14T12:32:06.897Z,21.40
2019-02-14T12:34:38.987Z,22.40
2019-02-14T12:37:10.863Z,23.80
2019-02-14T12:39:42.759Z,24.10
2019-02-14T12:42:14.620Z,23.90
2019-02-14T12:44:46.517Z,21.70
2019-02-14T12:47:18.391Z,20.30
2019-02-14T12:49:50.327Z,20.50
2019-02-14T12:52:22.196Z,21.70
2019-02-14T12:54:54.088Z,22.60
2019-02-14T12:57:26.038Z,23.60
2019-02-14T12:59:57.954Z,24.50
2019-02-14T13:02:29.824Z,24.70
2019-02-14T13:05:01.773Z,24.20
2019-02-14T13:07:34.283Z,23.70
2019-02-14T13:10:06.694Z,25.00
2019-02-14T13:12:38.548Z,25.80
2019-02-14T13:15:13.964Z,26.30
2019-02-14T13:17:46.466Z,27.50
2019-02-14T13:20:18.583Z,28.50
2019-02-14T13:22:50.443Z,28.90
2019-02-14T13:25:22.343Z,30.10
2019-02-14T13:27:54.208Z,30.80
2019-02-14T13:30:26.121Z,31.40
2019-02-14T13:32:57.963Z,31.70
2019-02-14T13:35:29.887Z,32.20
2019-02-14T13:38:01.821Z,31.80
2019-02-14T13:40:33.715Z,31.90
2019-02-14T13:43:05.573Z,31.50
2019-02-14T13:45:37.456Z,31.40
2019-02-14T13:48:09.424Z,32.00
2019-02-14T13:50:41.495Z,32.10
2019-02-14T13:53:13.367Z,32.40
2019-02-14T13:55:45.269Z,32.10
2019-02-14T13:58:17.186Z,31.50
2019-02-14T14:00:49.065Z,30.70
2019-02-14T14:03:20.921Z,30.90
2019-02-14T14:05:53.193Z,31.10
2019-02-14T14:08:25.080Z,31.10
2019-02-14T14:10:56.975Z,31.20
2019-02-14T14:13:29.076Z,31.20
2019-02-14T14:16:01.013Z,30.90
2019-02-14T14:18:33.301Z,31.30
2019-02-14T14:21:05.310Z,31.30
2019-02-14T14:23:37.253Z,31.50
2019-02-14T14:26:09.157Z,30.90
2019-02-14T14:28:41.388Z,31.50
2019-02-14T14:31:13.955Z,31.50
2019-02-14T14:33:45.837Z,30.30
2019-02-14T14:36:17.777Z,30.20
2019-02-14T14:38:49.767Z,29.90
2019-02-14T14:41:21.667Z,30.50
2019-02-14T14:44:15.461Z,30.40
2019-02-14T14:47:12.329Z,30.00
2019-02-14T14:49:44.188Z,28.60
2019-02-14T14:52:16.469Z,29.20
2019-02-14T14:54:48.342Z,28.20
2019-02-14T14:57:20.219Z,27.90
2019-02-14T14:59:52.102Z,27.70
2019-02-14T15:02:24.598Z,27.80
2019-02-14T15:04:56.472Z,28.20
2019-02-14T15:07:28.391Z,26.40
2019-02-14T15:10:00.257Z,26.50
2019-02-14T15:12:32.241Z,26.20
2019-02-14T15:15:04.083Z,23.90
2019-02-14T15:17:35.958Z,20.40
2019-02-14T15:20:08.560Z,18.10
2019-02-14T15:22:40.557Z,16.60
2019-02-14T15:25:12.452Z,15.10
2019-02-14T15:27:44.434Z,14.10
2019-02-14T15:30:16.300Z,13.40
2019-02-14T15:32:48.182Z,13.30
2019-02-14T15:35:20.053Z,12.30
2019-02-14T15:37:52.140Z,11.80
2019-02-14T15:40:24.085Z,11.30
2019-02-14T15:42:55.960Z,10.50
2019-02-14T15:45:27.839Z,10.40
2019-02-14T15:47:59.758Z,10.00
2019-02-14T15:50:32.195Z,9.90
2019-02-14T15:53:04.143Z,9.40
2019-02-14T15:55:36.107Z,9.40
2019-02-14T15:58:09.283Z,8.80
2019-02-14T16:00:41.183Z,8.70
2019-02-14T16:03:15.329Z,8.60
2019-02-14T16:05:46.622Z,8.60
2019-02-14T16:08:19.687Z,8.60
2019-02-14T16:10:55.577Z,8.50
2019-02-14T16:13:25.712Z,8.40
2019-02-14T16:15:58.780Z,8.30
2019-02-14T16:18:30.867Z,8.00
2019-02-14T16:21:03.722Z,8.00
2019-02-14T16:23:36.868Z,8.00
2019-02-14T16:26:08.751Z,8.00
2019-02-14T16:28:40.637Z,7.80
2019-02-14T16:31:12.501Z,7.60
2019-02-14T16:33:44.377Z,8.00
2019-02-14T16:36:16.245Z,7.90
2019-02-14T16:38:48.396Z,7.60
2019-02-14T16:41:20.396Z,7.40
2019-02-14T16:43:52.431Z,7.40
2019-02-14T16:46:24.385Z,7.40
2019-02-14T16:48:56.414Z,7.50
2019-02-14T16:51:28.716Z,7.30
2019-02-14T16:54:00.788Z,7.40
2019-02-14T16:56:32.714Z,7.40
2019-02-14T16:59:04.626Z,7.40
2019-02-14T17:01:36.491Z,7.40
2019-02-14T17:04:08.382Z,7.30
2019-02-14T17:06:41.197Z,6.80
2019-02-14T17:09:13.331Z,7.10
2019-02-14T17:11:45.178Z,6.90
2019-02-14T17:14:17.082Z,6.80
2019-02-14T17:16:48.934Z,6.90
2019-02-14T17:19:20.848Z,6.60
2019-02-14T17:21:53.023Z,6.40
2019-02-14T17:24:24.965Z,6.40
2019-02-14T17:26:56.819Z,6.40
2019-02-14T17:29:29.816Z,6.60
2019-02-14T17:32:02.387Z,6.40
2019-02-14T17:34:34.280Z,6.40
2019-02-14T17:37:06.154Z,6.20
2019-02-14T17:39:39.376Z,6.20
2019-02-14T17:42:11.588Z,6.00
2019-02-14T17:44:46.595Z,6.10
2019-02-14T17:47:19.479Z,6.10
2019-02-14T17:49:51.416Z,6.00
2019-02-14T17:52:24.183Z,5.70
2019-02-14T17:54:57.249Z,5.70
2019-02-14T17:57:29.096Z,5.80
2019-02-14T18:00:01.021Z,5.40
2019-02-14T18:02:32.901Z,5.70
2019-02-14T18:05:04.907Z,5.10
2019-02-14T18:07:36.814Z,5.40
2019-02-14T18:10:10.784Z,5.40
2019-02-14T18:12:42.889Z,5.40
2019-02-14T18:15:14.815Z,5.20
2019-02-14T18:17:46.671Z,5.20
2019-02-14T18:20:19.234Z,5.00
2019-02-14T18:22:51.362Z,5.10
2019-02-14T18:25:23.338Z,4.80
2019-02-14T18:27:55.911Z,4.60
2019-02-14T18:30:28.037Z,4.80
2019-02-14T18:32:59.975Z,4.80
2019-02-14T18:35:31.983Z,4.60
2019-02-14T18:38:03.837Z,4.70
2019-02-14T18:45:52.281Z,4.80
2019-02-14T18:48:24.164Z,4.40
2019-02-14T18:50:57.101Z,4.40
2019-02-14T18:53:29.101Z,4.60
2019-02-14T18:56:02.088Z,4.40
2019-02-14T18:58:35.294Z,4.30
2019-02-14T19:01:08.716Z,4.30
2019-02-14T19:03:43.404Z,4.40
2019-02-14T19:06:15.260Z,4.30
2019-02-14T19:08:47.200Z,4.30
2019-02-14T19:11:21.727Z,4.40
2019-02-14T19:13:53.942Z,4.40
2019-02-14T19:16:25.849Z,4.30
2019-02-14T19:18:58.783Z,4.20
2019-02-14T19:21:30.799Z,4.30
2019-02-14T19:24:03.363Z,4.20
2019-02-14T19:26:35.248Z,4.00
2019-02-14T19:29:07.207Z,4.30
2019-02-14T19:31:39.112Z,4.00
2019-02-14T19:34:11.056Z,4.00
2019-02-14T19:36:42.994Z,4.00
2019-02-14T19:39:14.895Z,4.20
2019-02-14T19:41:46.870Z,4.10
2019-02-14T19:44:19.885Z,4.00
2019-02-14T19:46:52.110Z,3.90
2019-02-14T19:49:24.091Z,4.00
2019-02-14T19:51:55.954Z,3.90
2019-02-14T19:54:27.830Z,3.80
2019-02-14T19:56:59.699Z,3.70
2019-02-14T19:59:31.841Z,3.80
2019-02-14T20:02:03.682Z,3.80
2019-02-14T20:04:35.577Z,3.80
2019-02-14T20:07:07.711Z,3.80
2019-02-14T20:09:41.541Z,3.60
2019-02-14T20:12:13.166Z,3.60
2019-02-14T20:14:45.183Z,3.50
2019-02-14T20:17:17.914Z,3.60
2019-02-14T20:19:49.917Z,3.60
2019-02-14T20:22:21.765Z,3.40
2019-02-14T20:24:54.015Z,3.50
2019-02-14T20:27:26.101Z,3.50
2019-02-14T20:29:58.330Z,3.60
2019-02-14T20:32:30.202Z,3.60
2019-02-14T20:35:02.401Z,3.60
2019-02-14T20:37:34.506Z,3.50
2019-02-14T20:40:07.297Z,3.50
2019-02-14T20:42:39.181Z,3.50
2019-02-14T20:45:12.572Z,3.40
2019-02-14T20:47:44.445Z,3.30
2019-02-14T20:50:16.467Z,3.30
2019-02-14T20:52:50.592Z,3.20
2019-02-14T20:55:22.691Z,3.10
2019-02-14T20:57:55.143Z,3.10
2019-02-14T21:00:32.237Z,3.10
2019-02-14T21:03:04.087Z,3.30
2019-02-14T21:05:36.023Z,3.10
2019-02-14T21:08:07.877Z,3.10
2019-02-14T21:10:39.779Z,2.90
2019-02-14T21:13:11.721Z,3.00
2019-02-14T21:15:43.928Z,3.00
2019-02-14T21:18:15.784Z,3.10
2019-02-14T21:20:47.691Z,3.00
2019-02-14T21:23:19.596Z,3.20
2019-02-14T21:25:51.969Z,3.20
2019-02-14T21:28:23.905Z,3.10
2019-02-14T21:30:56.026Z,3.00
2019-02-14T21:33:27.896Z,2.90
2019-02-14T21:35:59.841Z,2.90
2019-02-14T21:38:31.668Z,3.00
2019-02-14T21:41:03.641Z,2.80
2019-02-14T21:43:35.489Z,2.70
2019-02-14T21:46:07.537Z,2.60
2019-02-14T21:48:39.432Z,2.80
2019-02-14T21:51:11.375Z,2.60
2019-02-14T21:53:43.253Z,2.70
2019-02-14T21:56:15.196Z,2.70
2019-02-14T21:58:47.043Z,2.70
2019-02-14T22:01:22.304Z,2.90
2019-02-14T22:03:54.147Z,2.80
2019-02-14T22:06:26.046Z,2.80
2019-02-14T22:08:57.941Z,2.80
2019-02-14T22:11:33.933Z,2.80
2019-02-14T22:14:03.452Z,2.70
2019-02-14T22:16:35.538Z,2.80
2019-02-14T22:19:07.392Z,2.80
2019-02-14T22:21:39.287Z,2.70
2019-02-14T22:24:12.509Z,2.60
2019-02-14T22:26:44.539Z,2.70
2019-02-14T22:29:17.459Z,2.50
2019-02-14T22:31:49.794Z,2.50
2019-02-14T22:34:22.559Z,2.50
2019-02-14T22:36:55.041Z,2.60
2019-02-14T22:39:28.122Z,2.60
2019-02-14T22:42:00.002Z,2.60
2019-02-14T22:44:31.962Z,2.60
2019-02-14T22:47:04.196Z,2.50
2019-02-14T22:49:36.057Z,2.40
2019-02-14T22:52:08.103Z,2.30
2019-02-14T22:54:40.535Z,2.40
2019-02-14T22:57:12.617Z,2.50
2019-02-14T22:59:44.555Z,2.40
2019-02-14T23:02:16.901Z,2.40
2019-02-14T23:04:48.752Z,2.30
2019-02-14T23:07:20.777Z,2.30
2019-02-14T23:09:53.090Z,2.20
2019-02-14T23:12:24.990Z,2.20
2019-02-14T23:14:56.852Z,2.40
2019-02-14T23:17:28.765Z,2.50
2019-02-14T23:20:00.778Z,2.30
2019-02-14T23:22:32.925Z,2.40
2019-02-14T23:25:04.810Z,2.30
2019-02-14T23:27:40.500Z,2.20
2019-02-14T23:30:12.376Z,2.10
2019-02-14T23:32:44.610Z,2.10
2019-02-14T23:35:16.476Z,2.00
2019-02-14T23:37:48.448Z,2.10
2019-02-14T23:40:20.299Z,2.00
2019-02-14T23:42:52.186Z,2.30
2019-02-14T23:45:24.255Z,2.10
2019-02-14T23:47:56.161Z,2.00
2019-02-14T23:50:28.003Z,2.20
2019-02-14T23:52:59.905Z,2.20
2019-02-14T23:55:31.761Z,2.00
2019-02-14T23:58:03.638Z,2.00
